sensor_id;sensor_type;location;lat;lon;timestamp;P1;durP1;ratioP1;P2;durP2;ratioP2
20014;SDS011;61787;42.022;23.078;2023-03-01T00:01:04;8.13;;;6.03;;
20014;SDS011;61787;42.022;23.078;2023-03-01T00:02:07;8.00;;;5.70;;
20014;SDS011;61787;42.022;23.078;2023-03-01T00:03:08;8.47;;;5.73;;
20014;SDS011;61787;42.022;23.078;2023-03-01T00:04:10;7.33;;;6.13;;
20014;SDS011;61787;42.022;23.078;2023-03-01T00:05:12;8.97;;;5.23;;
20014;SDS011;61787;42.022;23.078;2023-03-01T00:06:13;6.77;;;5.30;;
20014;SDS011;61787;42.022;23.078;2023-03-01T00:07:15;8.43;;;5.13;;
20014;SDS011;61787;42.022;23.078;2023-03-01T00:08:17;5.47;;;4.87;;
20014;SDS011;61787;42.022;23.078;2023-03-01T00:09:18;6.33;;;4.57;;
20014;SDS011;61787;42.022;23.078;2023-03-01T00:10:20;5.80;;;4.33;;
20014;SDS011;61787;42.022;23.078;2023-03-01T00:11:26;6.90;;;4.87;;
20014;SDS011;61787;42.022;23.078;2023-03-01T00:12:30;7.10;;;5.20;;
20014;SDS011;61787;42.022;23.078;2023-03-01T00:13:32;6.57;;;4.77;;
20014;SDS011;61787;42.022;23.078;2023-03-01T00:14:35;5.70;;;4.73;;
20014;SDS011;61787;42.022;23.078;2023-03-01T00:15:40;5.50;;;4.23;;
20014;SDS011;61787;42.022;23.078;2023-03-01T00:16:43;5.03;;;4.00;;
20014;SDS011;61787;42.022;23.078;2023-03-01T00:17:46;5.23;;;3.90;;
20014;SDS011;61787;42.022;23.078;2023-03-01T00:18:48;4.70;;;4.13;;
20014;SDS011;61787;42.022;23.078;2023-03-01T00:19:49;6.10;;;4.67;;
20014;SDS011;61787;42.022;23.078;2023-03-01T00:20:52;6.47;;;4.60;;
20014;SDS011;61787;42.022;23.078;2023-03-01T00:21:54;8.20;;;4.63;;
20014;SDS011;61787;42.022;23.078;2023-03-01T00:22:56;6.30;;;4.60;;
20014;SDS011;61787;42.022;23.078;2023-03-01T00:23:57;5.33;;;4.83;;
20014;SDS011;61787;42.022;23.078;2023-03-01T00:24:59;7.93;;;5.10;;
20014;SDS011;61787;42.022;23.078;2023-03-01T00:26:01;5.97;;;4.67;;
20014;SDS011;61787;42.022;23.078;2023-03-01T00:27:03;5.40;;;4.13;;
20014;SDS011;61787;42.022;23.078;2023-03-01T00:28:04;6.30;;;4.47;;
20014;SDS011;61787;42.022;23.078;2023-03-01T00:29:06;7.20;;;4.70;;
20014;SDS011;61787;42.022;23.078;2023-03-01T00:30:08;7.23;;;4.63;;
20014;SDS011;61787;42.022;23.078;2023-03-01T00:31:11;5.23;;;4.10;;
20014;SDS011;61787;42.022;23.078;2023-03-01T00:32:19;5.93;;;4.83;;
20014;SDS011;61787;42.022;23.078;2023-03-01T00:33:21;7.43;;;5.10;;
20014;SDS011;61787;42.022;23.078;2023-03-01T00:34:23;5.07;;;4.37;;
20014;SDS011;61787;42.022;23.078;2023-03-01T00:35:24;7.73;;;5.70;;
20014;SDS011;61787;42.022;23.078;2023-03-01T00:36:27;6.70;;;5.00;;
20014;SDS011;61787;42.022;23.078;2023-03-01T00:37:30;7.27;;;5.93;;
20014;SDS011;61787;42.022;23.078;2023-03-01T00:38:36;8.70;;;5.67;;
20014;SDS011;61787;42.022;23.078;2023-03-01T00:39:39;6.70;;;4.97;;
20014;SDS011;61787;42.022;23.078;2023-03-01T00:40:41;6.63;;;5.13;;
20014;SDS011;61787;42.022;23.078;2023-03-01T00:41:42;9.17;;;4.50;;
20014;SDS011;61787;42.022;23.078;2023-03-01T00:42:44;5.57;;;4.67;;
20014;SDS011;61787;42.022;23.078;2023-03-01T00:43:46;6.10;;;4.93;;
20014;SDS011;61787;42.022;23.078;2023-03-01T00:44:47;6.87;;;5.20;;
20014;SDS011;61787;42.022;23.078;2023-03-01T00:45:49;7.33;;;5.00;;
20014;SDS011;61787;42.022;23.078;2023-03-01T00:46:50;6.67;;;5.27;;
20014;SDS011;61787;42.022;23.078;2023-03-01T00:47:52;7.90;;;5.50;;
20014;SDS011;61787;42.022;23.078;2023-03-01T00:48:54;7.30;;;5.40;;
20014;SDS011;61787;42.022;23.078;2023-03-01T00:49:55;9.07;;;6.10;;
20014;SDS011;61787;42.022;23.078;2023-03-01T00:50:59;6.53;;;5.50;;
20014;SDS011;61787;42.022;23.078;2023-03-01T00:52:06;7.60;;;6.00;;
20014;SDS011;61787;42.022;23.078;2023-03-01T00:53:07;8.97;;;6.20;;
20014;SDS011;61787;42.022;23.078;2023-03-01T00:54:09;11.63;;;6.93;;
20014;SDS011;61787;42.022;23.078;2023-03-01T00:55:11;8.13;;;6.40;;
20014;SDS011;61787;42.022;23.078;2023-03-01T00:56:14;8.57;;;6.77;;
20014;SDS011;61787;42.022;23.078;2023-03-01T00:57:16;10.67;;;6.60;;
20014;SDS011;61787;42.022;23.078;2023-03-01T00:58:17;8.10;;;6.33;;
20014;SDS011;61787;42.022;23.078;2023-03-01T00:59:19;9.63;;;7.27;;
20014;SDS011;61787;42.022;23.078;2023-03-01T01:00:20;8.43;;;6.00;;
20014;SDS011;61787;42.022;23.078;2023-03-01T01:01:23;7.90;;;5.47;;
20014;SDS011;61787;42.022;23.078;2023-03-01T01:02:32;7.63;;;5.40;;
20014;SDS011;61787;42.022;23.078;2023-03-01T01:03:34;7.03;;;4.70;;
20014;SDS011;61787;42.022;23.078;2023-03-01T01:04:36;10.17;;;5.33;;
20014;SDS011;61787;42.022;23.078;2023-03-01T01:05:37;6.53;;;5.00;;
20014;SDS011;61787;42.022;23.078;2023-03-01T01:06:40;7.37;;;5.27;;
20014;SDS011;61787;42.022;23.078;2023-03-01T01:07:46;7.40;;;5.67;;
20014;SDS011;61787;42.022;23.078;2023-03-01T01:08:49;6.30;;;5.20;;
20014;SDS011;61787;42.022;23.078;2023-03-01T01:09:51;6.93;;;5.30;;
20014;SDS011;61787;42.022;23.078;2023-03-01T01:10:53;5.67;;;4.30;;
20014;SDS011;61787;42.022;23.078;2023-03-01T01:11:55;6.13;;;4.50;;
20014;SDS011;61787;42.022;23.078;2023-03-01T01:12:56;4.53;;;3.77;;
20014;SDS011;61787;42.022;23.078;2023-03-01T01:13:59;5.00;;;3.97;;
20014;SDS011;61787;42.022;23.078;2023-03-01T01:15:00;4.97;;;3.97;;
20014;SDS011;61787;42.022;23.078;2023-03-01T01:16:02;4.73;;;4.20;;
20014;SDS011;61787;42.022;23.078;2023-03-01T01:17:04;5.77;;;4.03;;
20014;SDS011;61787;42.022;23.078;2023-03-01T01:18:06;7.87;;;4.20;;
20014;SDS011;61787;42.022;23.078;2023-03-01T01:19:08;6.13;;;4.53;;
20014;SDS011;61787;42.022;23.078;2023-03-01T01:20:11;8.23;;;4.50;;
20014;SDS011;61787;42.022;23.078;2023-03-01T01:21:14;5.70;;;4.33;;
20014;SDS011;61787;42.022;23.078;2023-03-01T01:22:17;5.70;;;3.93;;
20014;SDS011;61787;42.022;23.078;2023-03-01T01:23:19;8.20;;;4.43;;
20014;SDS011;61787;42.022;23.078;2023-03-01T01:24:20;4.33;;;3.83;;
20014;SDS011;61787;42.022;23.078;2023-03-01T01:25:22;6.63;;;4.33;;
20014;SDS011;61787;42.022;23.078;2023-03-01T01:26:29;5.57;;;4.07;;
20014;SDS011;61787;42.022;23.078;2023-03-01T01:27:33;4.30;;;3.90;;
20014;SDS011;61787;42.022;23.078;2023-03-01T01:28:35;6.30;;;4.23;;
20014;SDS011;61787;42.022;23.078;2023-03-01T01:29:37;7.97;;;4.90;;
20014;SDS011;61787;42.022;23.078;2023-03-01T01:30:38;5.20;;;4.53;;
20014;SDS011;61787;42.022;23.078;2023-03-01T01:31:40;4.37;;;3.73;;
20014;SDS011;61787;42.022;23.078;2023-03-01T01:32:43;5.00;;;4.00;;
20014;SDS011;61787;42.022;23.078;2023-03-01T01:33:45;5.60;;;4.17;;
20014;SDS011;61787;42.022;23.078;2023-03-01T01:34:47;6.23;;;4.10;;
20014;SDS011;61787;42.022;23.078;2023-03-01T01:36:06;5.40;;;3.60;;
20014;SDS011;61787;42.022;23.078;2023-03-01T01:37:08;6.27;;;3.97;;
20014;SDS011;61787;42.022;23.078;2023-03-01T01:38:10;4.07;;;3.27;;
20014;SDS011;61787;42.022;23.078;2023-03-01T01:39:12;6.20;;;3.23;;
20014;SDS011;61787;42.022;23.078;2023-03-01T01:40:14;7.70;;;3.50;;
20014;SDS011;61787;42.022;23.078;2023-03-01T01:41:16;5.53;;;3.60;;
20014;SDS011;61787;42.022;23.078;2023-03-01T01:42:18;3.93;;;3.47;;
20014;SDS011;61787;42.022;23.078;2023-03-01T01:43:38;5.03;;;3.40;;
20014;SDS011;61787;42.022;23.078;2023-03-01T01:45:24;4.40;;;3.77;;
20014;SDS011;61787;42.022;23.078;2023-03-01T01:46:30;5.40;;;3.70;;
20014;SDS011;61787;42.022;23.078;2023-03-01T01:47:34;6.43;;;3.70;;
20014;SDS011;61787;42.022;23.078;2023-03-01T01:48:40;6.60;;;4.03;;
20014;SDS011;61787;42.022;23.078;2023-03-01T01:49:47;5.37;;;4.17;;
20014;SDS011;61787;42.022;23.078;2023-03-01T01:50:55;7.33;;;4.70;;
20014;SDS011;61787;42.022;23.078;2023-03-01T01:52:02;6.47;;;5.10;;
20014;SDS011;61787;42.022;23.078;2023-03-01T01:53:12;6.57;;;4.03;;
20014;SDS011;61787;42.022;23.078;2023-03-01T01:54:20;5.53;;;4.33;;
20014;SDS011;61787;42.022;23.078;2023-03-01T01:55:27;5.47;;;4.00;;
20014;SDS011;61787;42.022;23.078;2023-03-01T01:56:29;6.53;;;4.00;;
20014;SDS011;61787;42.022;23.078;2023-03-01T01:57:33;7.17;;;4.20;;
20014;SDS011;61787;42.022;23.078;2023-03-01T01:58:43;4.57;;;4.10;;
20014;SDS011;61787;42.022;23.078;2023-03-01T01:59:45;3.97;;;3.40;;
20014;SDS011;61787;42.022;23.078;2023-03-01T02:00:52;4.63;;;3.77;;
20014;SDS011;61787;42.022;23.078;2023-03-01T02:01:55;4.10;;;3.70;;
20014;SDS011;61787;42.022;23.078;2023-03-01T02:03:18;5.40;;;4.10;;
20014;SDS011;61787;42.022;23.078;2023-03-01T02:04:31;5.03;;;3.87;;
20014;SDS011;61787;42.022;23.078;2023-03-01T02:07:03;4.40;;;3.70;;
20014;SDS011;61787;42.022;23.078;2023-03-01T02:08:17;5.37;;;3.70;;
20014;SDS011;61787;42.022;23.078;2023-03-01T02:09:20;4.70;;;4.10;;
20014;SDS011;61787;42.022;23.078;2023-03-01T02:10:24;4.77;;;4.00;;
20014;SDS011;61787;42.022;23.078;2023-03-01T02:11:27;4.10;;;3.67;;
20014;SDS011;61787;42.022;23.078;2023-03-01T02:12:32;5.27;;;4.23;;
20014;SDS011;61787;42.022;23.078;2023-03-01T02:13:35;4.93;;;4.30;;
20014;SDS011;61787;42.022;23.078;2023-03-01T02:14:37;4.40;;;4.00;;
20014;SDS011;61787;42.022;23.078;2023-03-01T02:15:39;6.03;;;4.07;;
20014;SDS011;61787;42.022;23.078;2023-03-01T02:16:42;5.00;;;4.30;;
20014;SDS011;61787;42.022;23.078;2023-03-01T02:17:44;5.37;;;3.80;;
20014;SDS011;61787;42.022;23.078;2023-03-01T02:18:46;6.30;;;3.90;;
20014;SDS011;61787;42.022;23.078;2023-03-01T02:22:29;3.90;;;3.50;;
20014;SDS011;61787;42.022;23.078;2023-03-01T02:23:32;5.03;;;4.03;;
20014;SDS011;61787;42.022;23.078;2023-03-01T02:24:38;5.53;;;4.43;;
20014;SDS011;61787;42.022;23.078;2023-03-01T02:25:50;4.50;;;4.10;;
20014;SDS011;61787;42.022;23.078;2023-03-01T02:26:58;5.00;;;3.90;;
20014;SDS011;61787;42.022;23.078;2023-03-01T02:29:06;6.07;;;4.03;;
20014;SDS011;61787;42.022;23.078;2023-03-01T02:30:08;5.23;;;4.07;;
20014;SDS011;61787;42.022;23.078;2023-03-01T02:31:14;4.47;;;3.97;;
20014;SDS011;61787;42.022;23.078;2023-03-01T02:32:37;4.70;;;4.10;;
20014;SDS011;61787;42.022;23.078;2023-03-01T02:33:42;5.43;;;3.90;;
20014;SDS011;61787;42.022;23.078;2023-03-01T02:34:46;5.70;;;4.23;;
20014;SDS011;61787;42.022;23.078;2023-03-01T02:35:48;4.90;;;4.20;;
20014;SDS011;61787;42.022;23.078;2023-03-01T02:37:00;5.37;;;4.50;;
20014;SDS011;61787;42.022;23.078;2023-03-01T02:38:06;4.50;;;3.97;;
20014;SDS011;61787;42.022;23.078;2023-03-01T02:39:10;4.40;;;3.90;;
20014;SDS011;61787;42.022;23.078;2023-03-01T02:40:18;5.50;;;4.30;;
20014;SDS011;61787;42.022;23.078;2023-03-01T02:41:22;5.63;;;4.40;;
20014;SDS011;61787;42.022;23.078;2023-03-01T02:42:30;6.17;;;4.40;;
20014;SDS011;61787;42.022;23.078;2023-03-01T02:43:36;7.97;;;4.60;;
20014;SDS011;61787;42.022;23.078;2023-03-01T02:44:38;7.57;;;4.50;;
20014;SDS011;61787;42.022;23.078;2023-03-01T02:45:42;5.43;;;4.53;;
20014;SDS011;61787;42.022;23.078;2023-03-01T02:46:50;5.10;;;4.53;;
20014;SDS011;61787;42.022;23.078;2023-03-01T02:47:54;5.97;;;4.60;;
20014;SDS011;61787;42.022;23.078;2023-03-01T02:48:57;5.57;;;4.57;;
20014;SDS011;61787;42.022;23.078;2023-03-01T02:50:00;5.53;;;4.73;;
20014;SDS011;61787;42.022;23.078;2023-03-01T02:51:05;8.63;;;4.73;;
20014;SDS011;61787;42.022;23.078;2023-03-01T02:53:52;5.33;;;4.37;;
20014;SDS011;61787;42.022;23.078;2023-03-01T02:56:17;5.57;;;3.60;;
20014;SDS011;61787;42.022;23.078;2023-03-01T02:57:19;3.80;;;3.50;;
20014;SDS011;61787;42.022;23.078;2023-03-01T02:58:23;4.30;;;3.20;;
20014;SDS011;61787;42.022;23.078;2023-03-01T02:59:26;3.60;;;3.30;;
20014;SDS011;61787;42.022;23.078;2023-03-01T03:00:41;3.70;;;2.90;;
20014;SDS011;61787;42.022;23.078;2023-03-01T03:01:48;3.07;;;2.60;;
20014;SDS011;61787;42.022;23.078;2023-03-01T03:02:50;2.53;;;2.30;;
20014;SDS011;61787;42.022;23.078;2023-03-01T03:03:53;2.67;;;2.47;;
20014;SDS011;61787;42.022;23.078;2023-03-01T03:04:55;2.97;;;2.57;;
20014;SDS011;61787;42.022;23.078;2023-03-01T03:05:56;2.40;;;2.20;;
20014;SDS011;61787;42.022;23.078;2023-03-01T03:06:58;2.60;;;2.37;;
20014;SDS011;61787;42.022;23.078;2023-03-01T03:08:01;2.60;;;2.40;;
20014;SDS011;61787;42.022;23.078;2023-03-01T03:09:04;3.10;;;2.27;;
20014;SDS011;61787;42.022;23.078;2023-03-01T03:10:07;2.27;;;2.07;;
20014;SDS011;61787;42.022;23.078;2023-03-01T03:11:12;4.57;;;2.83;;
20014;SDS011;61787;42.022;23.078;2023-03-01T03:12:14;2.17;;;1.97;;
20014;SDS011;61787;42.022;23.078;2023-03-01T03:13:15;2.80;;;2.37;;
20014;SDS011;61787;42.022;23.078;2023-03-01T03:14:18;2.27;;;2.07;;
20014;SDS011;61787;42.022;23.078;2023-03-01T03:15:20;2.53;;;2.30;;
20014;SDS011;61787;42.022;23.078;2023-03-01T03:16:23;2.97;;;2.40;;
20014;SDS011;61787;42.022;23.078;2023-03-01T03:17:25;2.57;;;2.30;;
20014;SDS011;61787;42.022;23.078;2023-03-01T03:18:27;2.63;;;2.43;;
20014;SDS011;61787;42.022;23.078;2023-03-01T03:19:29;3.03;;;2.60;;
20014;SDS011;61787;42.022;23.078;2023-03-01T03:20:30;3.63;;;2.70;;
20014;SDS011;61787;42.022;23.078;2023-03-01T03:21:33;2.70;;;2.30;;
20014;SDS011;61787;42.022;23.078;2023-03-01T03:22:35;2.80;;;2.47;;
20014;SDS011;61787;42.022;23.078;2023-03-01T03:23:37;2.97;;;2.53;;
20014;SDS011;61787;42.022;23.078;2023-03-01T03:24:38;3.43;;;2.73;;
20014;SDS011;61787;42.022;23.078;2023-03-01T03:25:40;3.00;;;2.57;;
20014;SDS011;61787;42.022;23.078;2023-03-01T03:26:42;2.67;;;2.47;;
20014;SDS011;61787;42.022;23.078;2023-03-01T03:27:44;2.50;;;2.27;;
20014;SDS011;61787;42.022;23.078;2023-03-01T03:28:47;4.83;;;2.93;;
20014;SDS011;61787;42.022;23.078;2023-03-01T03:29:48;3.50;;;2.60;;
20014;SDS011;61787;42.022;23.078;2023-03-01T03:30:50;2.97;;;2.67;;
20014;SDS011;61787;42.022;23.078;2023-03-01T03:31:52;4.00;;;2.50;;
20014;SDS011;61787;42.022;23.078;2023-03-01T03:32:53;2.40;;;2.20;;
20014;SDS011;61787;42.022;23.078;2023-03-01T03:33:56;2.47;;;2.27;;
20014;SDS011;61787;42.022;23.078;2023-03-01T03:35:00;2.97;;;2.40;;
20014;SDS011;61787;42.022;23.078;2023-03-01T03:36:01;2.73;;;2.43;;
20014;SDS011;61787;42.022;23.078;2023-03-01T03:37:03;2.60;;;2.40;;
20014;SDS011;61787;42.022;23.078;2023-03-01T03:38:06;2.53;;;2.33;;
20014;SDS011;61787;42.022;23.078;2023-03-01T03:39:16;5.03;;;2.23;;
20014;SDS011;61787;42.022;23.078;2023-03-01T03:40:20;2.57;;;2.10;;
20014;SDS011;61787;42.022;23.078;2023-03-01T03:41:22;4.30;;;2.23;;
20014;SDS011;61787;42.022;23.078;2023-03-01T03:42:24;3.10;;;2.30;;
20014;SDS011;61787;42.022;23.078;2023-03-01T03:43:25;2.30;;;2.10;;
20014;SDS011;61787;42.022;23.078;2023-03-01T03:44:27;3.43;;;2.47;;
20014;SDS011;61787;42.022;23.078;2023-03-01T03:45:28;2.40;;;2.20;;
20014;SDS011;61787;42.022;23.078;2023-03-01T03:46:30;3.40;;;2.20;;
20014;SDS011;61787;42.022;23.078;2023-03-01T03:47:32;2.30;;;2.10;;
20014;SDS011;61787;42.022;23.078;2023-03-01T03:48:35;3.20;;;2.50;;
20014;SDS011;61787;42.022;23.078;2023-03-01T03:49:38;2.50;;;2.30;;
20014;SDS011;61787;42.022;23.078;2023-03-01T03:50:40;2.30;;;2.07;;
20014;SDS011;61787;42.022;23.078;2023-03-01T03:51:41;2.23;;;2.03;;
20014;SDS011;61787;42.022;23.078;2023-03-01T03:52:43;2.17;;;1.50;;
20014;SDS011;61787;42.022;23.078;2023-03-01T03:53:45;2.00;;;1.80;;
20014;SDS011;61787;42.022;23.078;2023-03-01T03:54:47;1.67;;;1.57;;
20014;SDS011;61787;42.022;23.078;2023-03-01T03:55:48;2.27;;;2.00;;
20014;SDS011;61787;42.022;23.078;2023-03-01T03:56:50;1.83;;;1.67;;
20014;SDS011;61787;42.022;23.078;2023-03-01T03:57:52;1.70;;;1.60;;
20014;SDS011;61787;42.022;23.078;2023-03-01T03:58:55;2.00;;;1.80;;
20014;SDS011;61787;42.022;23.078;2023-03-01T03:59:56;2.00;;;1.80;;
20014;SDS011;61787;42.022;23.078;2023-03-01T04:00:58;1.87;;;1.77;;
20014;SDS011;61787;42.022;23.078;2023-03-01T04:02:01;2.10;;;1.60;;
20014;SDS011;61787;42.022;23.078;2023-03-01T04:03:03;2.03;;;1.83;;
20014;SDS011;61787;42.022;23.078;2023-03-01T04:04:05;2.00;;;1.80;;
20014;SDS011;61787;42.022;23.078;2023-03-01T04:05:09;1.80;;;1.70;;
20014;SDS011;61787;42.022;23.078;2023-03-01T04:06:15;2.03;;;1.60;;
20014;SDS011;61787;42.022;23.078;2023-03-01T04:07:17;3.17;;;1.90;;
20014;SDS011;61787;42.022;23.078;2023-03-01T04:08:19;2.20;;;2.00;;
20014;SDS011;61787;42.022;23.078;2023-03-01T04:09:22;2.57;;;1.70;;
20014;SDS011;61787;42.022;23.078;2023-03-01T04:10:24;1.90;;;1.80;;
20014;SDS011;61787;42.022;23.078;2023-03-01T04:11:25;1.63;;;1.53;;
20014;SDS011;61787;42.022;23.078;2023-03-01T04:12:27;1.77;;;1.67;;
20014;SDS011;61787;42.022;23.078;2023-03-01T04:13:28;2.27;;;1.87;;
20014;SDS011;61787;42.022;23.078;2023-03-01T04:14:30;1.67;;;1.57;;
20014;SDS011;61787;42.022;23.078;2023-03-01T04:15:32;1.90;;;1.70;;
20014;SDS011;61787;42.022;23.078;2023-03-01T04:16:35;2.03;;;1.83;;
20014;SDS011;61787;42.022;23.078;2023-03-01T04:17:36;2.53;;;2.00;;
20014;SDS011;61787;42.022;23.078;2023-03-01T04:18:38;1.80;;;1.70;;
20014;SDS011;61787;42.022;23.078;2023-03-01T04:19:39;2.23;;;2.03;;
20014;SDS011;61787;42.022;23.078;2023-03-01T04:20:41;2.60;;;1.80;;
20014;SDS011;61787;42.022;23.078;2023-03-01T04:21:44;3.47;;;2.43;;
20014;SDS011;61787;42.022;23.078;2023-03-01T04:22:45;2.43;;;2.23;;
20014;SDS011;61787;42.022;23.078;2023-03-01T04:23:48;2.23;;;1.90;;
20014;SDS011;61787;42.022;23.078;2023-03-01T04:24:49;2.30;;;1.87;;
20014;SDS011;61787;42.022;23.078;2023-03-01T04:25:52;3.33;;;2.40;;
20014;SDS011;61787;42.022;23.078;2023-03-01T04:26:55;2.30;;;2.10;;
20014;SDS011;61787;42.022;23.078;2023-03-01T04:27:56;2.87;;;2.40;;
20014;SDS011;61787;42.022;23.078;2023-03-01T04:28:58;2.80;;;2.60;;
20014;SDS011;61787;42.022;23.078;2023-03-01T04:30:00;2.80;;;2.37;;
20014;SDS011;61787;42.022;23.078;2023-03-01T04:31:06;2.73;;;2.13;;
20014;SDS011;61787;42.022;23.078;2023-03-01T04:32:17;2.73;;;2.20;;
20014;SDS011;61787;42.022;23.078;2023-03-01T04:33:19;3.33;;;2.37;;
20014;SDS011;61787;42.022;23.078;2023-03-01T04:34:22;3.00;;;2.50;;
20014;SDS011;61787;42.022;23.078;2023-03-01T04:35:23;2.37;;;2.17;;
20014;SDS011;61787;42.022;23.078;2023-03-01T04:36:26;2.53;;;2.30;;
20014;SDS011;61787;42.022;23.078;2023-03-01T04:37:29;2.73;;;2.30;;
20014;SDS011;61787;42.022;23.078;2023-03-01T04:38:31;4.40;;;2.37;;
20014;SDS011;61787;42.022;23.078;2023-03-01T04:39:32;2.80;;;2.50;;
20014;SDS011;61787;42.022;23.078;2023-03-01T04:40:34;2.67;;;2.20;;
20014;SDS011;61787;42.022;23.078;2023-03-01T04:41:36;2.63;;;2.20;;
20014;SDS011;61787;42.022;23.078;2023-03-01T04:42:39;2.30;;;2.10;;
20014;SDS011;61787;42.022;23.078;2023-03-01T04:43:40;2.47;;;2.27;;
20014;SDS011;61787;42.022;23.078;2023-03-01T04:44:42;3.30;;;2.37;;
20014;SDS011;61787;42.022;23.078;2023-03-01T04:45:44;2.30;;;2.10;;
20014;SDS011;61787;42.022;23.078;2023-03-01T04:46:48;2.40;;;1.93;;
20014;SDS011;61787;42.022;23.078;2023-03-01T04:47:50;2.30;;;1.90;;
20014;SDS011;61787;42.022;23.078;2023-03-01T04:48:54;2.27;;;2.07;;
20014;SDS011;61787;42.022;23.078;2023-03-01T04:49:56;2.73;;;2.50;;
20014;SDS011;61787;42.022;23.078;2023-03-01T04:50:58;3.07;;;2.10;;
20014;SDS011;61787;42.022;23.078;2023-03-01T04:52:01;3.07;;;2.40;;
20014;SDS011;61787;42.022;23.078;2023-03-01T04:53:05;2.70;;;2.20;;
20014;SDS011;61787;42.022;23.078;2023-03-01T04:54:07;2.90;;;2.47;;
20014;SDS011;61787;42.022;23.078;2023-03-01T04:55:10;3.03;;;2.43;;
20014;SDS011;61787;42.022;23.078;2023-03-01T04:56:12;3.30;;;2.50;;
20014;SDS011;61787;42.022;23.078;2023-03-01T04:57:18;2.33;;;2.07;;
20014;SDS011;61787;42.022;23.078;2023-03-01T04:58:22;2.73;;;2.53;;
20014;SDS011;61787;42.022;23.078;2023-03-01T04:59:25;3.00;;;2.70;;
20014;SDS011;61787;42.022;23.078;2023-03-01T05:00:26;3.53;;;2.50;;
20014;SDS011;61787;42.022;23.078;2023-03-01T05:01:28;2.43;;;2.23;;
20014;SDS011;61787;42.022;23.078;2023-03-01T05:02:30;2.83;;;2.27;;
20014;SDS011;61787;42.022;23.078;2023-03-01T05:03:31;3.57;;;2.70;;
20014;SDS011;61787;42.022;23.078;2023-03-01T05:04:33;3.67;;;2.57;;
20014;SDS011;61787;42.022;23.078;2023-03-01T05:05:36;2.93;;;2.27;;
20014;SDS011;61787;42.022;23.078;2023-03-01T05:06:38;2.50;;;2.30;;
20014;SDS011;61787;42.022;23.078;2023-03-01T05:07:40;2.50;;;2.30;;
20014;SDS011;61787;42.022;23.078;2023-03-01T05:08:42;3.33;;;2.43;;
20014;SDS011;61787;42.022;23.078;2023-03-01T05:09:45;3.93;;;2.53;;
20014;SDS011;61787;42.022;23.078;2023-03-01T05:10:48;2.20;;;2.00;;
20014;SDS011;61787;42.022;23.078;2023-03-01T05:11:52;2.47;;;2.27;;
20014;SDS011;61787;42.022;23.078;2023-03-01T05:12:54;2.80;;;2.13;;
20014;SDS011;61787;42.022;23.078;2023-03-01T05:13:58;4.13;;;2.20;;
20014;SDS011;61787;42.022;23.078;2023-03-01T05:15:00;2.50;;;2.20;;
20014;SDS011;61787;42.022;23.078;2023-03-01T05:16:02;2.40;;;2.17;;
20014;SDS011;61787;42.022;23.078;2023-03-01T05:17:05;2.50;;;2.30;;
20014;SDS011;61787;42.022;23.078;2023-03-01T05:18:07;2.30;;;2.10;;
20014;SDS011;61787;42.022;23.078;2023-03-01T05:19:12;2.77;;;2.33;;
20014;SDS011;61787;42.022;23.078;2023-03-01T05:20:16;3.17;;;2.30;;
20014;SDS011;61787;42.022;23.078;2023-03-01T05:21:18;2.73;;;2.17;;
20014;SDS011;61787;42.022;23.078;2023-03-01T05:22:20;2.70;;;2.13;;
20014;SDS011;61787;42.022;23.078;2023-03-01T05:23:22;2.10;;;1.83;;
20014;SDS011;61787;42.022;23.078;2023-03-01T05:24:24;2.10;;;1.90;;
20014;SDS011;61787;42.022;23.078;2023-03-01T05:25:26;3.27;;;2.57;;
20014;SDS011;61787;42.022;23.078;2023-03-01T05:26:28;2.53;;;2.20;;
20014;SDS011;61787;42.022;23.078;2023-03-01T05:27:29;2.20;;;2.00;;
20014;SDS011;61787;42.022;23.078;2023-03-01T05:28:32;2.20;;;2.00;;
20014;SDS011;61787;42.022;23.078;2023-03-01T05:29:34;2.17;;;1.97;;
20014;SDS011;61787;42.022;23.078;2023-03-01T05:30:36;2.20;;;2.00;;
20014;SDS011;61787;42.022;23.078;2023-03-01T05:31:40;2.23;;;1.93;;
20014;SDS011;61787;42.022;23.078;2023-03-01T05:32:42;2.30;;;2.10;;
20014;SDS011;61787;42.022;23.078;2023-03-01T05:33:45;2.17;;;1.97;;
20014;SDS011;61787;42.022;23.078;2023-03-01T05:34:47;2.57;;;2.10;;
20014;SDS011;61787;42.022;23.078;2023-03-01T05:35:49;2.00;;;1.80;;
20014;SDS011;61787;42.022;23.078;2023-03-01T05:36:53;2.93;;;1.90;;
20014;SDS011;61787;42.022;23.078;2023-03-01T05:37:54;2.07;;;1.80;;
20014;SDS011;61787;42.022;23.078;2023-03-01T05:38:56;2.27;;;1.90;;
20014;SDS011;61787;42.022;23.078;2023-03-01T05:39:58;2.30;;;2.10;;
20014;SDS011;61787;42.022;23.078;2023-03-01T05:40:59;3.07;;;2.33;;
20014;SDS011;61787;42.022;23.078;2023-03-01T05:42:01;1.80;;;1.70;;
20014;SDS011;61787;42.022;23.078;2023-03-01T05:43:03;2.17;;;1.97;;
20014;SDS011;61787;42.022;23.078;2023-03-01T05:44:06;2.37;;;2.17;;
20014;SDS011;61787;42.022;23.078;2023-03-01T05:45:08;2.83;;;2.20;;
20014;SDS011;61787;42.022;23.078;2023-03-01T05:46:11;2.30;;;2.10;;
20014;SDS011;61787;42.022;23.078;2023-03-01T05:47:14;2.43;;;1.90;;
20014;SDS011;61787;42.022;23.078;2023-03-01T05:48:16;2.63;;;1.87;;
20014;SDS011;61787;42.022;23.078;2023-03-01T05:49:20;2.20;;;2.00;;
20014;SDS011;61787;42.022;23.078;2023-03-01T05:50:26;3.57;;;2.33;;
20014;SDS011;61787;42.022;23.078;2023-03-01T05:51:29;2.80;;;2.23;;
20014;SDS011;61787;42.022;23.078;2023-03-01T05:52:31;3.13;;;2.00;;
20014;SDS011;61787;42.022;23.078;2023-03-01T05:53:32;2.13;;;1.93;;
20014;SDS011;61787;42.022;23.078;2023-03-01T05:54:34;2.97;;;2.27;;
20014;SDS011;61787;42.022;23.078;2023-03-01T05:55:36;2.17;;;1.80;;
20014;SDS011;61787;42.022;23.078;2023-03-01T05:56:37;1.70;;;1.60;;
20014;SDS011;61787;42.022;23.078;2023-03-01T05:57:39;2.27;;;1.97;;
20014;SDS011;61787;42.022;23.078;2023-03-01T05:58:40;2.43;;;1.83;;
20014;SDS011;61787;42.022;23.078;2023-03-01T05:59:42;2.63;;;2.10;;
20014;SDS011;61787;42.022;23.078;2023-03-01T06:00:44;2.43;;;1.60;;
20014;SDS011;61787;42.022;23.078;2023-03-01T06:01:48;2.80;;;2.20;;
20014;SDS011;61787;42.022;23.078;2023-03-01T06:02:51;2.57;;;2.00;;
20014;SDS011;61787;42.022;23.078;2023-03-01T06:03:55;3.00;;;2.00;;
20014;SDS011;61787;42.022;23.078;2023-03-01T06:04:57;3.67;;;1.97;;
20014;SDS011;61787;42.022;23.078;2023-03-01T06:05:59;3.83;;;1.73;;
20014;SDS011;61787;42.022;23.078;2023-03-01T06:07:01;1.80;;;1.70;;
20014;SDS011;61787;42.022;23.078;2023-03-01T06:08:02;2.00;;;1.80;;
20014;SDS011;61787;42.022;23.078;2023-03-01T06:09:05;2.40;;;2.20;;
20014;SDS011;61787;42.022;23.078;2023-03-01T06:10:08;3.23;;;2.30;;
20014;SDS011;61787;42.022;23.078;2023-03-01T06:11:11;2.40;;;2.20;;
20014;SDS011;61787;42.022;23.078;2023-03-01T06:12:13;2.17;;;1.97;;
20014;SDS011;61787;42.022;23.078;2023-03-01T06:13:14;3.13;;;2.30;;
20014;SDS011;61787;42.022;23.078;2023-03-01T06:14:16;2.07;;;1.93;;
20014;SDS011;61787;42.022;23.078;2023-03-01T06:15:17;2.57;;;2.37;;
20014;SDS011;61787;42.022;23.078;2023-03-01T06:16:19;2.70;;;2.13;;
20014;SDS011;61787;42.022;23.078;2023-03-01T06:17:20;2.50;;;2.30;;
20014;SDS011;61787;42.022;23.078;2023-03-01T06:18:22;2.30;;;2.10;;
20014;SDS011;61787;42.022;23.078;2023-03-01T06:19:24;2.60;;;2.10;;
20014;SDS011;61787;42.022;23.078;2023-03-01T06:20:26;2.83;;;2.20;;
20014;SDS011;61787;42.022;23.078;2023-03-01T06:21:29;2.67;;;2.30;;
20014;SDS011;61787;42.022;23.078;2023-03-01T06:22:31;3.13;;;1.93;;
20014;SDS011;61787;42.022;23.078;2023-03-01T06:23:33;2.30;;;2.00;;